Time;durP1;ratioP1;P1;durP2;ratioP2;P2;SDS_P1;SDS_P2;PMS_P1;PMS_P2;Temp;Humidity;BMP_temperature;BMP_pressure;BME280_temperature;BME280_humidity;BME280_pressure;Samples;Min_cycle;Max_cycle;Signal;HPM_P1;HPM_P2
2021/03/13 00:00:38;;;;;;;7.00;1.50;;;7.50;80.70;;;;;;2069732;28;20525;-82
2021/03/13 00:01:39;;;;;;;5.22;1.10;;;7.50;80.70;;;;;;2063296;28;20065;-82
2021/03/13 00:02:44;;;;;;;8.30;1.50;;;7.50;80.70;;;;;;2069594;28;20396;-82
2021/03/13 00:03:45;;;;;;;7.00;1.48;;;7.50;80.70;;;;;;2072947;28;20381;-83
2021/03/13 00:04:46;;;;;;;6.68;1.20;;;7.50;80.70;;;;;;2082176;28;20132;-82
2021/03/13 00:05:47;;;;;;;8.80;1.63;;;7.50;80.70;;;;;;2072433;28;20022;-82
2021/03/13 00:06:47;;;;;;;7.97;2.08;;;7.50;80.70;;;;;;2065349;28;20042;-82
2021/03/13 00:07:48;;;;;;;6.18;1.52;;;7.50;80.70;;;;;;2065076;28;20186;-82
2021/03/13 00:08:49;;;;;;;6.53;1.60;;;7.50;80.70;;;;;;2073296;28;20107;-82
2021/03/13 00:09:50;;;;;;;8.10;1.90;;;7.50;80.70;;;;;;2062752;28;20480;-82
2021/03/13 00:10:52;;;;;;;7.68;1.60;;;7.50;80.70;;;;;;2056969;28;20073;-83
2021/03/13 00:11:52;;;;;;;6.07;1.70;;;7.50;80.70;;;;;;2072669;28;20030;-82
2021/03/13 00:12:53;;;;;;;8.18;1.65;;;7.50;80.70;;;;;;2065224;28;20500;-83
2021/03/13 00:13:54;;;;;;;9.40;1.70;;;7.50;80.70;;;;;;2082047;28;20029;-82
2021/03/13 00:14:55;;;;;;;8.43;1.73;;;7.50;80.70;;;;;;2081715;28;20032;-82
2021/03/13 00:15:55;;;;;;;6.57;1.45;;;7.50;80.70;;;;;;2082077;28;20095;-82
2021/03/13 00:16:56;;;;;;;7.35;1.70;;;7.50;80.70;;;;;;2064282;28;20125;-82
2021/03/13 00:17:58;;;;;;;8.63;1.50;;;7.50;80.70;;;;;;2065469;28;20050;-82
2021/03/13 00:18:59;;;;;;;6.70;1.65;;;7.50;80.70;;;;;;2081315;28;20040;-83
2021/03/13 00:19:59;;;;;;;6.88;1.48;;;7.50;80.70;;;;;;2080991;28;20033;-82
2021/03/13 00:21:00;;;;;;;4.72;1.42;;;7.50;80.70;;;;;;2064840;28;20030;-83
2021/03/13 00:22:01;;;;;;;9.65;2.00;;;7.50;80.80;;;;;;2067176;28;20396;-82
2021/03/13 00:23:03;;;;;;;7.40;1.60;;;7.50;80.70;;;;;;2074489;28;20046;-82
2021/03/13 00:24:03;;;;;;;7.85;1.50;;;7.50;80.70;;;;;;2070737;28;20025;-83
2021/03/13 00:25:06;;;;;;;6.97;1.30;;;7.50;80.70;;;;;;2057113;28;20031;-82
2021/03/13 00:26:06;;;;;;;8.60;1.52;;;7.50;80.80;;;;;;2050331;28;20039;-82
2021/03/13 00:27:07;;;;;;;8.52;1.73;;;7.50;80.80;;;;;;2058709;28;20525;-83
2021/03/13 00:28:09;;;;;;;7.00;1.70;;;7.50;80.80;;;;;;2066968;28;20101;-83
2021/03/13 00:29:10;;;;;;;8.35;1.98;;;7.50;80.80;;;;;;2075276;28;20021;-83
2021/03/13 00:30:14;;;;;;;4.50;1.15;;;7.50;80.80;;;;;;2092651;28;20479;-82
2021/03/13 00:31:14;;;;;;;4.68;1.50;;;7.50;80.90;;;;;;2078127;28;20054;-84
2021/03/13 00:32:15;;;;;;;5.32;1.15;;;7.50;80.90;;;;;;2080860;28;20021;-83
2021/03/13 00:33:21;;;;;;;5.47;1.40;;;7.50;80.90;;;;;;2076222;28;20491;-82
2021/03/13 00:34:22;;;;;;;9.45;1.48;;;7.50;81.00;;;;;;2063042;28;20031;-82
2021/03/13 00:35:28;;;;;;;7.50;1.50;;;7.40;81.00;;;;;;2056894;28;20552;-83
2021/03/13 00:36:29;;;;;;;6.35;1.40;;;7.50;81.10;;;;;;2063036;28;20022;-83
2021/03/13 00:37:29;;;;;;;6.95;1.63;;;7.40;81.00;;;;;;2073388;28;20406;-83
2021/03/13 00:38:30;;;;;;;8.13;1.42;;;7.40;81.10;;;;;;2082632;28;20041;-83
2021/03/13 00:39:31;;;;;;;8.07;1.30;;;7.40;81.10;;;;;;2074510;28;20034;-83
2021/03/13 00:40:33;;;;;;;8.75;1.52;;;7.40;81.20;;;;;;2067940;28;20033;-83
2021/03/13 00:41:34;;;;;;;9.18;1.60;;;7.40;81.20;;;;;;2072603;28;22824;-83
2021/03/13 00:42:34;;;;;;;5.13;1.23;;;7.40;81.30;;;;;;2081567;28;20021;-83
2021/03/13 00:43:35;;;;;;;7.38;1.30;;;7.40;81.30;;;;;;2066055;28;20034;-83
2021/03/13 00:44:36;;;;;;;7.85;2.38;;;7.40;81.30;;;;;;2077515;28;20033;-83
2021/03/13 00:45:37;;;;;;;6.82;1.40;;;7.40;81.30;;;;;;2073019;28;20108;-82
2021/03/13 00:46:40;;;;;;;4.38;1.10;;;7.40;81.30;;;;;;2072351;28;20066;-83
2021/03/13 00:47:41;;;;;;;7.28;1.23;;;7.40;81.40;;;;;;2080792;28;20084;-82
2021/03/13 00:48:41;;;;;;;5.50;1.23;;;7.40;81.30;;;;;;2090053;28;20162;-83
2021/03/13 00:49:42;;;;;;;6.38;1.20;;;7.40;81.30;;;;;;2081274;28;20072;-83
2021/03/13 00:50:44;;;;;;;9.23;1.50;;;7.40;81.30;;;;;;2065755;28;20029;-81
2021/03/13 00:51:45;;;;;;;8.30;1.33;;;7.40;81.30;;;;;;2071873;28;20076;-82
2021/03/13 00:52:46;;;;;;;6.30;1.42;;;7.40;81.30;;;;;;2080384;28;20450;-82
2021/03/13 00:53:47;;;;;;;7.60;1.80;;;7.40;81.40;;;;;;2072649;28;20506;-83
2021/03/13 00:54:47;;;;;;;5.88;1.25;;;7.40;82.00;;;;;;2073002;28;20365;-83
2021/03/13 00:55:48;;;;;;;6.97;1.40;;;7.40;81.40;;;;;;2063706;28;20539;-82
2021/03/13 00:56:49;;;;;;;4.35;0.95;;;7.40;81.40;;;;;;2064503;28;20124;-83
2021/03/13 00:57:50;;;;;;;7.53;1.38;;;7.40;81.40;;;;;;2072908;28;20451;-82
2021/03/13 00:58:50;;;;;;;7.35;1.48;;;7.40;81.40;;;;;;2064720;28;20436;-83
2021/03/13 00:59:51;;;;;;;5.80;1.27;;;7.40;81.50;;;;;;2065631;28;20037;-83
2021/03/13 01:00:52;;;;;;;6.63;1.48;;;7.40;81.40;;;;;;2075706;28;20109;-82
2021/03/13 01:01:52;;;;;;;5.50;1.30;;;7.40;81.50;;;;;;2076490;28;20056;-82
2021/03/13 01:02:53;;;;;;;5.60;1.30;;;7.40;81.40;;;;;;2074299;28;20030;-83
2021/03/13 01:03:54;;;;;;;6.28;1.10;;;7.40;81.40;;;;;;2075056;28;20026;-83
2021/03/13 01:04:54;;;;;;;5.80;1.52;;;7.40;81.50;;;;;;2083468;28;20041;-83
2021/03/13 01:05:55;;;;;;;5.68;1.00;;;7.40;81.50;;;;;;2073136;28;20546;-83
2021/03/13 01:06:56;;;;;;;5.40;1.20;;;7.40;81.50;;;;;;2060329;28;20050;-83
2021/03/13 01:07:56;;;;;;;4.85;1.10;;;7.40;81.50;;;;;;2063006;28;20504;-83
2021/03/13 01:08:57;;;;;;;7.00;1.40;;;7.40;81.50;;;;;;2072906;28;20060;-83
2021/03/13 01:09:58;;;;;;;4.60;1.00;;;7.40;81.60;;;;;;2064903;28;20026;-83
2021/03/13 01:10:59;;;;;;;6.97;1.30;;;7.40;81.60;;;;;;2057848;28;20488;-82
2021/03/13 01:11:59;;;;;;;6.07;1.20;;;7.40;81.50;;;;;;2070589;28;20072;-83
2021/03/13 01:13:01;;;;;;;5.85;1.25;;;7.40;81.60;;;;;;2067875;28;20072;-82
2021/03/13 01:14:02;;;;;;;7.85;1.40;;;7.40;81.60;;;;;;2072700;28;20053;-82
2021/03/13 01:15:07;;;;;;;5.50;1.52;;;7.40;81.60;;;;;;2080579;28;20029;-82
2021/03/13 01:16:08;;;;;;;8.80;1.83;;;7.40;81.60;;;;;;2081017;28;20026;-83
2021/03/13 01:17:09;;;;;;;7.82;1.58;;;7.40;81.70;;;;;;2072429;28;20523;-83
2021/03/13 01:18:09;;;;;;;5.05;1.10;;;7.40;81.70;;;;;;2072793;28;20021;-83
2021/03/13 01:19:10;;;;;;;6.13;1.67;;;7.40;81.70;;;;;;2075960;28;20105;-82
2021/03/13 01:20:13;;;;;;;8.35;1.50;;;7.40;81.70;;;;;;2066552;28;20121;-82
2021/03/13 01:21:14;;;;;;;4.88;0.98;;;7.40;81.80;;;;;;2063936;28;20125;-82
2021/03/13 01:22:14;;;;;;;7.70;1.30;;;7.40;81.90;;;;;;2063984;28;20026;-82
2021/03/13 01:23:15;;;;;;;8.05;1.50;;;7.40;82.00;;;;;;2055445;28;20030;-82
2021/03/13 01:24:16;;;;;;;6.35;1.33;;;7.40;82.00;;;;;;2057950;28;20713;-83
2021/03/13 01:25:18;;;;;;;6.72;1.50;;;7.40;82.70;;;;;;2065935;28;20022;-82
2021/03/13 01:26:18;;;;;;;5.90;1.20;;;7.30;82.10;;;;;;2056806;28;20035;-82
2021/03/13 01:27:19;;;;;;;5.03;1.20;;;7.30;82.30;;;;;;2064051;28;20092;-82
2021/03/13 01:28:19;;;;;;;6.80;1.55;;;7.30;82.40;;;;;;2064437;28;20473;-83
2021/03/13 01:29:20;;;;;;;5.25;1.20;;;7.30;82.60;;;;;;2048979;28;20035;-83
2021/03/13 01:30:22;;;;;;;6.25;1.85;;;7.20;82.60;;;;;;2056962;28;20038;-82
2021/03/13 01:31:22;;;;;;;5.43;1.25;;;7.20;82.70;;;;;;2071251;28;20112;-82
2021/03/13 01:32:23;;;;;;;5.80;1.30;;;7.20;82.90;;;;;;2064604;28;20497;-83
2021/03/13 01:33:24;;;;;;;8.05;1.42;;;7.20;82.90;;;;;;2072747;28;20149;-83
2021/03/13 01:34:24;;;;;;;5.20;1.40;;;7.20;83.20;;;;;;2056757;28;20038;-84
2021/03/13 01:35:25;;;;;;;4.22;1.00;;;7.20;83.30;;;;;;2066067;28;20038;-83
2021/03/13 01:36:26;;;;;;;5.53;1.35;;;7.10;83.40;;;;;;2072549;28;20025;-84
2021/03/13 01:37:27;;;;;;;4.82;1.20;;;7.10;83.50;;;;;;2063929;28;20133;-83
2021/03/13 01:38:27;;;;;;;4.90;1.30;;;7.00;83.50;;;;;;2064426;28;20539;-82
2021/03/13 01:39:28;;;;;;;7.88;1.67;;;7.00;83.70;;;;;;2065542;28;20515;-83
2021/03/13 01:40:29;;;;;;;7.38;1.50;;;7.00;83.90;;;;;;2072464;28;20104;-82
2021/03/13 01:41:29;;;;;;;8.00;2.05;;;7.00;84.00;;;;;;2064464;28;20440;-82
2021/03/13 01:42:30;;;;;;;5.50;1.33;;;7.00;84.30;;;;;;2066171;28;20026;-82
2021/03/13 01:43:31;;;;;;;5.68;1.33;;;6.90;84.30;;;;;;2088321;28;20494;-82
2021/03/13 01:44:32;;;;;;;5.15;1.30;;;6.90;84.50;;;;;;2078749;28;20135;-83
2021/03/13 01:45:33;;;;;;;5.38;1.30;;;6.90;84.60;;;;;;2056491;28;20040;-82
2021/03/13 01:46:33;;;;;;;5.47;1.35;;;6.90;85.30;;;;;;2064144;28;20023;-82
2021/03/13 01:47:34;;;;;;;5.82;1.27;;;6.90;84.80;;;;;;2072316;28;20038;-82
2021/03/13 01:48:42;;;;;;;5.68;1.50;;;6.90;85.00;;;;;;2063898;28;20397;-83
2021/03/13 01:49:44;;;;;;;5.97;1.40;;;6.80;84.90;;;;;;2073712;28;20029;-82
2021/03/13 01:50:45;;;;;;;4.22;1.20;;;6.80;85.00;;;;;;2073839;28;20052;-82
2021/03/13 01:51:46;;;;;;;3.75;1.17;;;6.80;85.10;;;;;;2064468;28;20478;-83
2021/03/13 01:52:48;;;;;;;4.03;1.13;;;6.80;85.20;;;;;;2072434;28;20032;-82
2021/03/13 01:53:50;;;;;;;5.15;1.30;;;6.80;85.90;;;;;;2064013;28;20068;-83
2021/03/13 01:54:50;;;;;;;6.03;1.48;;;6.80;85.40;;;;;;2065237;28;20041;-82
2021/03/13 01:55:52;;;;;;;6.38;1.45;;;6.80;85.50;;;;;;2072219;28;20032;-83
2021/03/13 01:56:52;;;;;;;6.43;1.75;;;6.80;85.60;;;;;;2080960;28;20080;-83
2021/03/13 01:57:53;;;;;;;3.90;1.02;;;6.80;85.80;;;;;;2072616;28;20030;-83
2021/03/13 01:58:54;;;;;;;5.28;1.50;;;6.80;85.80;;;;;;2070962;28;20030;-82
2021/03/13 01:59:55;;;;;;;7.70;1.48;;;6.80;85.90;;;;;;2063521;28;20034;-82
2021/03/13 02:00:55;;;;;;;4.45;1.23;;;6.70;86.00;;;;;;2071609;28;20065;-82
2021/03/13 02:01:56;;;;;;;6.40;1.45;;;6.70;86.10;;;;;;2075123;28;20058;-82
2021/03/13 02:02:57;;;;;;;3.50;1.20;;;6.70;86.20;;;;;;2070888;28;20420;-82
2021/03/13 02:04:02;;;;;;;4.05;1.23;;;6.70;86.30;;;;;;2072339;28;20424;-83
2021/03/13 02:05:12;;;;;;;3.92;1.20;;;6.70;86.40;;;;;;2059476;28;20039;-83
2021/03/13 02:06:12;;;;;;;5.15;1.40;;;6.70;86.40;;;;;;2072718;28;20021;-82
2021/03/13 02:07:30;;;;;;;7.00;1.50;;;6.70;86.50;;;;;;2079204;28;20533;-83
2021/03/13 02:08:53;;;;;;;5.43;1.25;;;6.70;86.50;;;;;;2072610;28;20393;-83
2021/03/13 02:10:28;;;;;;;4.82;1.27;;;6.70;86.70;;;;;;2076635;28;20083;-83
2021/03/13 02:11:47;;;;;;;4.05;1.48;;;6.70;86.60;;;;;;2077160;28;20315;-83
2021/03/13 02:12:53;;;;;;;4.85;1.23;;;6.60;86.60;;;;;;2064419;28;20050;-83
2021/03/13 02:14:09;;;;;;;5.78;1.52;;;6.60;86.60;;;;;;2066499;28;20022;-82
2021/03/13 02:15:40;;;;;;;4.03;1.10;;;6.60;86.70;;;;;;2071915;28;20030;-82
2021/03/13 02:16:48;;;;;;;3.05;1.10;;;6.60;86.80;;;;;;2067458;28;20403;-83
2021/03/13 02:17:54;;;;;;;4.03;1.20;;;6.60;86.80;;;;;;2066188;28;20034;-83
2021/03/13 02:19:16;;;;;;;3.30;1.10;;;6.60;86.80;;;;;;2080522;28;20029;-83
2021/03/13 02:20:32;;;;;;;3.30;0.82;;;6.60;86.90;;;;;;2080998;28;20476;-82
2021/03/13 02:21:55;;;;;;;3.90;1.08;;;6.60;86.90;;;;;;2071531;28;20036;-82
2021/03/13 02:22:58;;;;;;;2.33;0.90;;;6.60;87.00;;;;;;2068828;28;20024;-83
2021/03/13 02:24:28;;;;;;;2.50;0.85;;;6.60;87.00;;;;;;2071681;28;20421;-83
2021/03/13 02:26:02;;;;;;;5.45;1.10;;;6.60;87.20;;;;;;2075836;28;20063;-83
2021/03/13 02:27:15;;;;;;;3.67;1.52;;;6.50;87.20;;;;;;2075346;28;20080;-83
2021/03/13 02:28:24;;;;;;;3.67;1.08;;;6.50;87.20;;;;;;2087960;28;20033;-82
2021/03/13 02:29:44;;;;;;;4.50;0.98;;;6.50;87.30;;;;;;2088954;28;20115;-82
2021/03/13 02:30:45;;;;;;;3.00;1.10;;;6.50;87.40;;;;;;2068637;28;20540;-82
2021/03/13 02:31:55;;;;;;;5.13;1.17;;;6.50;87.60;;;;;;2064263;28;20377;-82
2021/03/13 02:33:01;;;;;;;7.28;1.52;;;6.50;87.60;;;;;;2072481;28;20042;-82
2021/03/13 02:34:06;;;;;;;4.07;1.20;;;6.50;87.70;;;;;;2072310;28;20029;-82
2021/03/13 02:35:15;;;;;;;3.63;1.35;;;6.50;87.80;;;;;;2068738;28;20022;-82
2021/03/13 02:36:18;;;;;;;6.03;1.45;;;6.40;87.80;;;;;;2069127;28;20504;-82
2021/03/13 02:37:23;;;;;;;4.80;1.38;;;6.50;88.00;;;;;;2072188;28;20104;-82
2021/03/13 02:38:31;;;;;;;3.38;1.20;;;6.50;88.00;;;;;;2066068;28;20028;-82
2021/03/13 02:39:35;;;;;;;3.67;1.23;;;6.50;88.10;;;;;;2073113;28;20085;-82
2021/03/13 02:40:38;;;;;;;3.22;1.00;;;6.50;88.20;;;;;;2087421;28;20024;-82
2021/03/13 02:41:45;;;;;;;2.83;1.30;;;6.50;88.80;;;;;;2084517;28;20033;-82
2021/03/13 02:42:52;;;;;;;3.33;1.08;;;6.50;88.20;;;;;;2079655;28;20017;-82
2021/03/13 02:44:01;;;;;;;4.13;1.30;;;6.50;88.30;;;;;;2081120;28;20068;-82
2021/03/13 02:45:02;;;;;;;4.53;1.20;;;6.50;88.30;;;;;;2088393;28;20037;-82
2021/03/13 02:46:02;;;;;;;3.42;1.48;;;6.50;88.50;;;;;;2064327;28;20027;-82
2021/03/13 02:47:06;;;;;;;5.25;1.73;;;6.50;88.50;;;;;;2053714;28;20509;-82
2021/03/13 02:48:10;;;;;;;3.38;1.20;;;6.50;88.60;;;;;;2082028;28;20017;-82
2021/03/13 02:49:13;;;;;;;3.67;1.00;;;6.50;88.60;;;;;;2082646;28;20025;-82
2021/03/13 02:50:15;;;;;;;3.15;1.20;;;6.50;88.60;;;;;;2081786;28;20029;-82
2021/03/13 02:51:18;;;;;;;3.45;1.30;;;6.50;88.80;;;;;;2079476;28;20376;-82
2021/03/13 02:52:21;;;;;;;3.63;1.20;;;6.50;88.80;;;;;;2082340;28;20028;-82
2021/03/13 02:53:23;;;;;;;3.50;1.30;;;6.50;88.80;;;;;;2073523;28;20033;-82
2021/03/13 02:54:25;;;;;;;2.67;1.10;;;6.50;88.90;;;;;;2065623;28;20496;-82
2021/03/13 02:55:28;;;;;;;3.67;1.08;;;6.40;88.80;;;;;;2070841;28;20530;-82
2021/03/13 02:56:30;;;;;;;4.97;1.17;;;6.50;89.00;;;;;;2064962;28;20026;-82
2021/03/13 02:57:33;;;;;;;3.72;1.20;;;6.40;89.00;;;;;;2065004;28;20057;-82
2021/03/13 02:58:36;;;;;;;3.55;1.40;;;6.50;89.10;;;;;;2074433;28;20049;-82
2021/03/13 02:59:38;;;;;;;2.83;1.35;;;6.50;89.20;;;;;;2073954;28;20389;-82
2021/03/13 03:00:41;;;;;;;2.55;1.17;;;6.40;89.10;;;;;;2070971;28;20052;-83
2021/03/13 03:01:43;;;;;;;5.18;1.48;;;6.50;89.20;;;;;;2065546;28;20029;-82
2021/03/13 03:02:48;;;;;;;3.72;1.30;;;6.50;89.20;;;;;;2065753;28;20023;-82
2021/03/13 03:03:51;;;;;;;3.33;1.30;;;6.50;89.30;;;;;;2070974;28;20026;-82
2021/03/13 03:04:53;;;;;;;3.20;1.30;;;6.50;89.40;;;;;;2085233;28;20041;-82
2021/03/13 03:05:55;;;;;;;3.72;1.50;;;6.50;89.30;;;;;;2073359;28;20030;-82
2021/03/13 03:06:58;;;;;;;1.77;0.93;;;6.40;89.30;;;;;;2074146;28;20018;-82
2021/03/13 03:08:05;;;;;;;3.03;1.20;;;6.40;89.90;;;;;;2077122;28;20034;-82
2021/03/13 03:09:08;;;;;;;2.42;1.20;;;6.50;89.50;;;;;;2081806;28;20025;-82
2021/03/13 03:10:10;;;;;;;2.92;1.13;;;6.50;89.40;;;;;;2080148;28;20036;-82
2021/03/13 03:11:12;;;;;;;3.60;1.50;;;6.50;89.50;;;;;;2081674;28;20156;-82
2021/03/13 03:12:13;;;;;;;3.72;1.40;;;6.50;89.50;;;;;;2090800;28;20025;-82
2021/03/13 03:13:13;;;;;;;3.78;1.45;;;6.50;89.60;;;;;;2083642;28;20478;-82
2021/03/13 03:14:17;;;;;;;3.35;1.20;;;6.50;89.60;;;;;;2073715;28;20065;-83
2021/03/13 03:15:22;;;;;;;3.65;1.50;;;6.50;90.10;;;;;;2082181;28;20064;-82
2021/03/13 03:16:24;;;;;;;4.80;1.83;;;6.50;89.80;;;;;;2074169;28;20022;-82
2021/03/13 03:17:27;;;;;;;4.50;1.40;;;6.50;89.80;;;;;;2073955;28;20041;-82
2021/03/13 03:18:28;;;;;;;4.60;1.92;;;6.40;90.00;;;;;;2073720;28;20073;-81
2021/03/13 03:19:30;;;;;;;4.38;1.67;;;6.50;90.00;;;;;;2073820;28;20513;-83
2021/03/13 03:20:32;;;;;;;6.00;2.20;;;6.50;90.00;;;;;;2081897;28;20025;-82
2021/03/13 03:21:34;;;;;;;4.10;1.63;;;6.50;90.00;;;;;;2081562;28;20026;-82
2021/03/13 03:22:37;;;;;;;5.25;1.80;;;6.50;90.00;;;;;;2081909;28;20057;-82
2021/03/13 03:23:38;;;;;;;3.65;1.50;;;6.50;90.00;;;;;;2081689;28;20057;-82
2021/03/13 03:24:42;;;;;;;3.78;1.50;;;6.50;90.30;;;;;;2075011;28;20092;-82
2021/03/13 03:25:42;;;;;;;3.00;1.70;;;6.50;90.00;;;;;;2067433;28;20352;-82
2021/03/13 03:26:43;;;;;;;3.35;1.67;;;6.50;90.10;;;;;;2073186;28;20025;-82
2021/03/13 03:27:50;;;;;;;4.47;1.70;;;6.50;90.00;;;;;;2065632;28;20370;-82
2021/03/13 03:28:50;;;;;;;5.10;1.73;;;6.50;90.10;;;;;;2058385;28;20125;-82
2021/03/13 03:29:52;;;;;;;4.00;2.00;;;6.50;90.00;;;;;;2066027;28;20437;-84
2021/03/13 03:30:54;;;;;;;5.18;1.77;;;6.50;90.10;;;;;;2065230;28;20117;-83
2021/03/13 03:31:54;;;;;;;3.65;1.55;;;6.50;90.20;;;;;;2066013;28;20493;-83
2021/03/13 03:32:56;;;;;;;4.75;1.88;;;6.50;90.10;;;;;;2073623;28;20118;-83
2021/03/13 03:33:57;;;;;;;5.68;1.95;;;6.50;90.10;;;;;;2073095;28;20422;-83
2021/03/13 03:34:58;;;;;;;4.13;1.65;;;6.50;90.30;;;;;;2064940;28;20026;-82
2021/03/13 03:35:59;;;;;;;2.90;1.50;;;6.50;90.20;;;;;;2056472;28;20075;-83
2021/03/13 03:36:59;;;;;;;4.90;1.60;;;6.50;90.50;;;;;;2049093;28;20095;-82
2021/03/13 03:38:02;;;;;;;6.40;1.70;;;6.50;90.30;;;;;;2065101;28;20044;-82
2021/03/13 03:39:03;;;;;;;4.75;1.67;;;6.50;90.20;;;;;;2065196;28;20034;-82
2021/03/13 03:40:05;;;;;;;5.28;1.88;;;6.50;90.30;;;;;;2057441;28;20058;-83
2021/03/13 03:41:06;;;;;;;3.97;1.73;;;6.50;90.30;;;;;;2065577;28;20043;-83
2021/03/13 03:42:08;;;;;;;3.75;1.70;;;6.50;90.30;;;;;;2065828;28;20023;-82
2021/03/13 03:43:35;;;;;;;5.38;1.92;;;6.50;90.30;;;;;;2078099;28;20030;-82
2021/03/13 03:44:41;;;;;;;3.72;1.65;;;6.50;90.40;;;;;;2075709;28;20092;-83
2021/03/13 03:45:52;;;;;;;5.22;2.05;;;6.50;90.40;;;;;;2069308;28;20021;-82
2021/03/13 03:47:00;;;;;;;3.90;1.50;;;6.50;90.30;;;;;;2068422;28;20113;-82
2021/03/13 03:48:10;;;;;;;3.67;1.60;;;6.50;90.30;;;;;;2057916;28;20576;-83
2021/03/13 03:49:13;;;;;;;3.47;1.45;;;6.50;90.40;;;;;;2058529;28;20022;-82
2021/03/13 03:50:15;;;;;;;4.63;1.60;;;6.50;90.40;;;;;;2068276;28;20025;-83
2021/03/13 03:51:16;;;;;;;3.20;1.40;;;6.50;90.40;;;;;;2068243;28;20018;-83
2021/03/13 03:52:17;;;;;;;3.53;1.45;;;6.50;90.40;;;;;;2059719;28;20038;-83
2021/03/13 03:53:25;;;;;;;5.50;1.50;;;6.60;90.40;;;;;;2064157;28;20509;-83
2021/03/13 03:54:26;;;;;;;4.90;1.42;;;6.60;90.40;;;;;;2065143;28;20492;-83
2021/03/13 03:55:28;;;;;;;2.42;1.27;;;6.60;90.50;;;;;;2056749;28;20031;-83
2021/03/13 03:56:29;;;;;;;5.38;1.63;;;6.60;90.50;;;;;;2065145;28;20557;-83
2021/03/13 03:57:31;;;;;;;3.17;1.35;;;6.50;90.50;;;;;;2065679;28;20144;-82
2021/03/13 03:58:43;;;;;;;3.53;1.20;;;6.50;90.40;;;;;;2072443;28;20038;-82
2021/03/13 03:59:46;;;;;;;4.65;1.50;;;6.50;90.40;;;;;;2072587;28;20037;-82
2021/03/13 04:00:47;;;;;;;5.28;1.58;;;6.60;90.50;;;;;;2072847;28;20018;-83
2021/03/13 04:01:53;;;;;;;5.05;1.58;;;6.60;90.60;;;;;;2074181;28;20104;-82
2021/03/13 04:02:58;;;;;;;3.83;1.30;;;6.60;90.50;;;;;;2067090;28;20025;-83
2021/03/13 04:04:01;;;;;;;3.22;1.20;;;6.60;90.50;;;;;;2070933;28;20030;-82
2021/03/13 04:05:04;;;;;;;4.25;1.23;;;6.60;90.50;;;;;;2072656;28;20423;-83
2021/03/13 04:06:09;;;;;;;4.38;1.27;;;6.60;90.50;;;;;;2065161;28;20445;-83
2021/03/13 04:07:10;;;;;;;3.67;1.25;;;6.60;90.60;;;;;;2057046;28;20042;-83
2021/03/13 04:08:12;;;;;;;5.30;1.63;;;6.60;90.60;;;;;;2065971;28;20497;-83
2021/03/13 04:09:14;;;;;;;3.45;1.33;;;6.60;90.60;;;;;;2079860;28;20056;-83
2021/03/13 04:10:15;;;;;;;3.85;1.35;;;6.60;90.60;;;;;;2073775;28;20113;-82
2021/03/13 04:11:18;;;;;;;3.80;1.23;;;6.60;90.60;;;;;;2078819;28;20013;-82
2021/03/13 04:12:20;;;;;;;4.13;1.30;;;6.60;90.60;;;;;;2073192;28;20115;-82
2021/03/13 04:13:22;;;;;;;7.15;1.70;;;6.60;90.60;;;;;;2066997;28;20062;-82
2021/03/13 04:14:24;;;;;;;5.43;1.70;;;6.70;90.60;;;;;;2073202;28;20030;-82
2021/03/13 04:15:25;;;;;;;5.65;1.40;;;6.60;90.70;;;;;;2069715;28;20030;-82
2021/03/13 04:16:28;;;;;;;5.00;1.63;;;6.70;90.70;;;;;;2072638;28;20471;-82
2021/03/13 04:17:31;;;;;;;5.00;1.83;;;6.60;90.70;;;;;;2077053;28;20064;-82
2021/03/13 04:18:32;;;;;;;4.25;1.52;;;6.70;90.80;;;;;;2070123;28;20858;-82
2021/03/13 04:19:33;;;;;;;5.38;1.63;;;6.60;90.70;;;;;;2076703;28;20064;-82
2021/03/13 04:20:37;;;;;;;4.15;1.50;;;6.70;90.90;;;;;;2062590;28;20030;-83
2021/03/13 04:21:39;;;;;;;5.28;1.65;;;6.70;90.80;;;;;;2065272;28;20548;-82
2021/03/13 04:22:40;;;;;;;4.10;1.35;;;6.70;90.80;;;;;;2065101;28;20038;-82
2021/03/13 04:23:45;;;;;;;4.25;1.60;;;6.70;90.90;;;;;;2067213;28;20077;-82
2021/03/13 04:24:46;;;;;;;3.72;1.05;;;6.70;90.80;;;;;;2071394;28;20477;-82
2021/03/13 04:25:52;;;;;;;3.63;1.50;;;6.70;90.80;;;;;;2073167;28;20026;-82
2021/03/13 04:26:54;;;;;;;4.18;1.48;;;6.70;90.80;;;;;;2073310;28;20021;-82
2021/03/13 04:27:54;;;;;;;3.83;1.58;;;6.70;90.90;;;;;;2073530;28;20357;-82
2021/03/13 04:28:55;;;;;;;4.60;1.60;;;6.70;90.90;;;;;;2067830;28;20061;-82
2021/03/13 04:29:56;;;;;;;4.22;1.15;;;6.70;90.90;;;;;;2065223;28;20121;-83
2021/03/13 04:30:57;;;;;;;4.60;1.40;;;6.70;90.90;;;;;;2072289;28;20416;-82
2021/03/13 04:32:00;;;;;;;6.85;1.88;;;6.70;90.90;;;;;;2064928;28;20014;-83
2021/03/13 04:33:02;;;;;;;5.28;1.40;;;6.70;90.90;;;;;;2071187;28;20026;-83
2021/03/13 04:34:04;;;;;;;3.85;1.40;;;6.70;90.90;;;;;;2067875;28;20062;-82
2021/03/13 04:35:06;;;;;;;4.20;1.38;;;6.70;91.00;;;;;;2065219;28;20034;-83
2021/03/13 04:36:08;;;;;;;3.25;1.50;;;6.70;91.00;;;;;;2070893;28;20113;-82
2021/03/13 04:37:10;;;;;;;5.40;1.45;;;6.70;91.00;;;;;;2062865;28;20454;-83
2021/03/13 04:38:12;;;;;;;6.05;1.75;;;6.70;91.00;;;;;;2067307;28;20804;-83
2021/03/13 04:39:14;;;;;;;5.90;1.63;;;6.70;90.90;;;;;;2071980;28;20037;-83
2021/03/13 04:40:15;;;;;;;3.70;1.30;;;6.70;91.00;;;;;;2081052;28;20026;-83
2021/03/13 04:41:16;;;;;;;3.97;1.50;;;6.70;91.20;;;;;;2081169;28;20041;-83
2021/03/13 04:42:17;;;;;;;5.85;1.60;;;6.70;91.00;;;;;;2072993;28;20638;-82
2021/03/13 04:43:19;;;;;;;4.63;1.70;;;6.80;91.30;;;;;;2064164;28;20030;-83
2021/03/13 04:44:20;;;;;;;5.53;1.52;;;6.80;91.10;;;;;;2064815;28;20067;-82
2021/03/13 04:45:21;;;;;;;3.50;1.30;;;6.70;91.00;;;;;;2081249;28;20026;-83
2021/03/13 04:46:23;;;;;;;4.18;1.35;;;6.80;91.00;;;;;;2073772;28;20474;-83
2021/03/13 04:47:24;;;;;;;6.13;1.58;;;6.80;91.00;;;;;;2065041;28;20453;-82
2021/03/13 04:48:30;;;;;;;4.70;1.55;;;6.80;91.00;;;;;;2065065;28;20117;-82
2021/03/13 04:49:32;;;;;;;4.65;1.27;;;6.80;91.00;;;;;;2072467;28;20589;-83
2021/03/13 04:50:33;;;;;;;4.53;1.38;;;6.80;91.00;;;;;;2075649;28;20121;-83
2021/03/13 04:51:34;;;;;;;5.32;1.60;;;6.80;91.00;;;;;;2075464;28;20409;-83
2021/03/13 04:52:35;;;;;;;4.57;1.40;;;6.80;91.00;;;;;;2074649;28;20025;-83
2021/03/13 04:53:36;;;;;;;3.88;1.10;;;6.80;91.00;;;;;;2080409;28;20053;-82
2021/03/13 04:54:36;;;;;;;3.65;1.40;;;6.80;91.00;;;;;;2074538;28;20034;-82
2021/03/13 04:55:37;;;;;;;4.38;1.35;;;6.80;91.00;;;;;;2075212;28;20117;-82
2021/03/13 04:56:37;;;;;;;3.92;1.25;;;6.80;91.00;;;;;;2056650;28;20027;-83
2021/03/13 04:57:38;;;;;;;5.68;1.60;;;6.90;91.10;;;;;;2049429;28;20035;-82
2021/03/13 04:58:40;;;;;;;4.63;1.60;;;6.90;91.00;;;;;;2057250;28;20126;-83
2021/03/13 04:59:40;;;;;;;4.40;1.35;;;6.90;91.10;;;;;;2073300;28;20085;-83
2021/03/13 05:00:41;;;;;;;6.75;2.00;;;6.80;91.10;;;;;;2056836;28;20030;-83
2021/03/13 05:01:42;;;;;;;5.22;1.50;;;6.80;91.10;;;;;;2059076;28;20031;-83
2021/03/13 05:02:43;;;;;;;3.92;1.30;;;6.90;91.10;;;;;;2056955;28;20557;-82
2021/03/13 05:03:43;;;;;;;4.38;1.40;;;6.90;91.00;;;;;;2058727;28;20035;-82
2021/03/13 05:04:44;;;;;;;3.75;1.50;;;6.90;91.00;;;;;;2064930;28;20105;-83
2021/03/13 05:05:45;;;;;;;4.07;1.58;;;6.90;91.00;;;;;;2072550;28;20033;-82
2021/03/13 05:06:45;;;;;;;4.35;1.75;;;6.90;91.00;;;;;;2056846;28;20026;-83
2021/03/13 05:07:46;;;;;;;3.65;1.40;;;6.90;91.00;;;;;;2064908;28;20026;-83
2021/03/13 05:08:47;;;;;;;4.13;1.35;;;6.90;91.30;;;;;;2064669;28;20023;-83
2021/03/13 05:09:47;;;;;;;4.32;1.35;;;6.90;91.00;;;;;;2064208;28;20481;-83
2021/03/13 05:10:48;;;;;;;4.28;1.15;;;6.90;91.00;;;;;;2064703;28;20029;-83
2021/03/13 05:11:49;;;;;;;4.00;1.35;;;7.00;91.00;;;;;;2064729;28;20034;-83
2021/03/13 05:12:51;;;;;;;3.88;1.42;;;6.90;91.00;;;;;;2065993;28;20022;-83
2021/03/13 05:13:52;;;;;;;5.68;1.55;;;7.00;91.00;;;;;;2064035;28;20039;-82
2021/03/13 05:14:52;;;;;;;4.15;1.40;;;6.90;91.00;;;;;;2057691;28;20478;-82
2021/03/13 05:15:53;;;;;;;4.35;1.40;;;7.00;91.00;;;;;;2062379;28;20491;-83
2021/03/13 05:16:54;;;;;;;3.83;1.25;;;7.00;91.10;;;;;;2064391;28;20488;-82
2021/03/13 05:17:54;;;;;;;3.53;1.35;;;6.90;91.00;;;;;;2060638;28;20064;-83
2021/03/13 05:18:55;;;;;;;4.43;1.42;;;7.00;91.10;;;;;;2062198;28;20027;-83
2021/03/13 05:19:56;;;;;;;2.95;1.10;;;7.00;91.10;;;;;;2064974;28;20042;-82
2021/03/13 05:20:57;;;;;;;5.65;1.48;;;7.00;91.10;;;;;;2073090;28;20076;-82
2021/03/13 05:21:57;;;;;;;5.65;1.77;;;7.00;91.00;;;;;;2065627;28;20054;-83
2021/03/13 05:22:58;;;;;;;6.90;1.58;;;7.00;91.10;;;;;;2079429;28;20040;-82
2021/03/13 05:23:59;;;;;;;4.85;1.40;;;7.00;91.10;;;;;;2080294;28;20029;-82
2021/03/13 05:24:59;;;;;;;3.95;1.50;;;7.00;91.10;;;;;;2066382;28;20073;-83
2021/03/13 05:26:00;;;;;;;3.00;1.35;;;7.00;91.10;;;;;;2060339;28;20031;-83
2021/03/13 05:27:01;;;;;;;5.40;1.48;;;7.00;91.10;;;;;;2073879;28;20041;-82
2021/03/13 05:28:02;;;;;;;4.57;1.55;;;7.00;91.20;;;;;;2078412;28;20381;-82
2021/03/13 05:29:03;;;;;;;3.35;1.38;;;7.00;91.20;;;;;;2072495;28;20041;-83
2021/03/13 05:30:05;;;;;;;5.28;1.45;;;7.00;91.10;;;;;;2063723;28;20033;-82
2021/03/13 05:31:06;;;;;;;4.80;1.60;;;7.00;91.20;;;;;;2062779;28;20523;-82
2021/03/13 05:32:07;;;;;;;4.00;1.30;;;7.00;91.20;;;;;;2063306;28;20050;-82